createdAt,value
2018-02-02T00:00:36.564Z,99170.94
2018-02-02T00:03:05.204Z,99170.56
2018-02-02T00:05:34.166Z,99169.25
2018-02-02T00:08:04.307Z,99166.89
2018-02-02T00:10:33.717Z,99167.35
2018-02-02T00:13:01.266Z,99162.70
2018-02-02T00:15:36.247Z,99169.16
2018-02-02T00:18:03.729Z,99162.36
2018-02-02T00:20:31.176Z,99162.28
2018-02-02T00:22:58.645Z,99177.47
2018-02-02T00:25:26.089Z,99180.97
2018-02-02T00:27:53.602Z,99176.52
2018-02-02T00:30:21.947Z,99177.33
2018-02-02T00:32:49.392Z,99173.92
2018-02-02T00:35:21.453Z,99180.55
2018-02-02T00:37:48.886Z,99180.63
2018-02-02T00:40:18.384Z,99181.20
2018-02-02T00:42:45.878Z,99179.22
2018-02-02T00:45:13.354Z,99184.02
2018-02-02T00:47:40.813Z,99190.52
2018-02-02T00:50:08.291Z,99182.12
2018-02-02T00:52:35.760Z,99176.95
2018-02-02T00:55:03.182Z,99175.09
2018-02-02T00:57:30.810Z,99177.62
2018-02-02T00:59:58.305Z,99176.20
2018-02-02T01:02:25.744Z,99178.50
2018-02-02T01:04:53.169Z,99178.34
2018-02-02T01:07:20.610Z,99177.50
2018-02-02T01:09:48.082Z,99172.08
2018-02-02T01:12:15.620Z,99182.75
2018-02-02T01:14:43.073Z,99181.77
2018-02-02T01:17:10.592Z,99184.89
2018-02-02T01:19:38.037Z,99184.11
2018-02-02T01:22:05.467Z,99187.39
2018-02-02T01:24:32.910Z,99187.88
2018-02-02T01:27:00.337Z,99186.80
2018-02-02T01:29:28.204Z,99184.31
2018-02-02T01:31:55.833Z,99186.34
2018-02-02T01:34:23.329Z,99177.55
2018-02-02T01:36:50.765Z,99171.31
2018-02-02T01:39:18.232Z,99170.42
2018-02-02T01:41:45.708Z,99177.83
2018-02-02T01:44:13.235Z,99175.46
2018-02-02T01:46:40.674Z,99175.38
2018-02-02T01:49:08.125Z,99170.29
2018-02-02T01:51:35.719Z,99175.58
2018-02-02T01:54:03.249Z,99172.42
2018-02-02T01:56:30.686Z,99167.75
2018-02-02T01:58:58.209Z,99174.07
2018-02-02T02:01:25.749Z,99177.70
2018-02-02T02:03:53.198Z,99170.24
2018-02-02T02:06:20.813Z,99172.08
2018-02-02T02:08:48.286Z,99165.92
2018-02-02T02:11:15.829Z,99160.73
2018-02-02T02:13:43.349Z,99159.40
2018-02-02T02:16:11.103Z,99160.23
2018-02-02T02:18:38.526Z,99164.63
2018-02-02T02:21:05.992Z,99165.17
2018-02-02T02:23:33.553Z,99168.67
2018-02-02T02:26:01.256Z,99163.67
2018-02-02T02:28:28.781Z,99157.09
2018-02-02T02:30:56.332Z,99159.80
2018-02-02T02:33:23.894Z,99157.98
2018-02-02T02:35:51.410Z,99153.70
2018-02-02T02:38:18.844Z,99152.03
2018-02-02T02:40:46.422Z,99152.05
2018-02-02T02:43:13.893Z,99158.96
2018-02-02T02:45:41.344Z,99156.54
2018-02-02T02:48:08.760Z,99159.66
2018-02-02T02:50:36.257Z,99154.36
2018-02-02T02:53:03.747Z,99160.00
2018-02-02T02:55:31.193Z,99153.36
2018-02-02T02:57:58.701Z,99146.19
2018-02-02T03:00:26.290Z,99151.66
2018-02-02T03:02:53.720Z,99153.67
2018-02-02T03:05:21.161Z,99157.50
2018-02-02T03:07:49.689Z,99159.75
2018-02-02T03:10:21.038Z,99161.48
2018-02-02T03:12:56.852Z,99162.22
2018-02-02T03:15:25.261Z,99162.14
2018-02-02T03:17:52.704Z,99179.36
2018-02-02T03:20:20.121Z,99177.35
2018-02-02T03:22:48.222Z,99168.83
2018-02-02T03:25:15.688Z,99176.97
2018-02-02T03:27:43.121Z,99171.75
2018-02-02T03:30:10.548Z,99174.86
2018-02-02T03:32:38.064Z,99170.31
2018-02-02T03:35:05.773Z,99164.08
2018-02-02T03:37:33.242Z,99165.13
2018-02-02T03:40:01.626Z,99163.66
2018-02-02T03:42:29.077Z,99161.24
2018-02-02T03:44:56.540Z,99159.82
2018-02-02T03:47:23.975Z,99157.19
2018-02-02T03:49:51.451Z,99161.78
2018-02-02T03:52:18.894Z,99156.64
2018-02-02T03:54:46.351Z,99164.34
2018-02-02T03:57:13.827Z,99166.71
2018-02-02T03:59:43.306Z,99163.22
2018-02-02T04:02:10.874Z,99159.02
2018-02-02T04:04:39.387Z,99162.12
2018-02-02T04:07:06.884Z,99161.61
2018-02-02T04:09:34.370Z,99158.45
2018-02-02T04:12:01.841Z,99159.34
2018-02-02T04:14:29.294Z,99155.92
2018-02-02T04:16:56.822Z,99162.91
2018-02-02T04:19:24.267Z,99155.68
2018-02-02T04:21:51.781Z,99161.53
2018-02-02T04:24:19.287Z,99161.73
2018-02-02T04:26:46.844Z,99163.46
2018-02-02T04:29:14.325Z,99160.97
2018-02-02T04:31:41.774Z,99164.55
2018-02-02T04:34:09.436Z,99157.07
2018-02-02T04:36:36.861Z,99156.35
2018-02-02T04:39:04.578Z,99157.81
2018-02-02T04:41:32.125Z,99160.42
2018-02-02T04:43:59.576Z,99155.41
2018-02-02T04:46:27.246Z,99156.81
2018-02-02T04:48:54.726Z,99146.45
2018-02-02T04:51:22.222Z,99151.05
2018-02-02T04:53:49.752Z,99138.92
2018-02-02T04:56:17.201Z,99139.20
2018-02-02T04:58:44.678Z,99138.00
2018-02-02T05:01:12.120Z,99154.55
2018-02-02T05:03:39.629Z,99140.95
2018-02-02T05:06:07.050Z,99137.70
2018-02-02T05:08:34.476Z,99130.59
2018-02-02T05:11:01.933Z,99134.87
2018-02-02T05:13:30.085Z,99136.55
2018-02-02T05:15:58.109Z,99133.50
2018-02-02T05:18:25.604Z,99125.47
2018-02-02T05:20:53.061Z,99118.91
2018-02-02T05:23:20.497Z,99125.31
2018-02-02T05:25:48.026Z,99129.27
2018-02-02T05:28:15.464Z,99115.06
2018-02-02T05:30:42.896Z,99114.10
2018-02-02T05:33:10.403Z,99112.49
2018-02-02T05:35:38.193Z,99110.61
2018-02-02T05:38:05.756Z,99105.25
2018-02-02T05:40:33.272Z,99112.54
2018-02-02T05:43:00.692Z,99106.00
2018-02-02T05:45:30.213Z,99111.59
2018-02-02T05:47:59.726Z,99118.74
2018-02-02T05:50:27.260Z,99120.56
2018-02-02T05:52:54.672Z,99110.79
2018-02-02T05:55:22.172Z,99120.53
2018-02-02T05:57:49.590Z,99121.75
2018-02-02T06:00:17.036Z,99131.76
2018-02-02T06:02:45.384Z,99127.97
2018-02-02T06:05:12.825Z,99131.83
2018-02-02T06:07:40.611Z,99126.53
2018-02-02T06:10:08.020Z,99129.83
2018-02-02T06:12:36.468Z,99116.22
2018-02-02T06:15:03.946Z,99119.37
2018-02-02T06:17:31.484Z,99116.45
2018-02-02T06:19:59.224Z,99103.00
2018-02-02T06:22:26.782Z,99108.42
2018-02-02T06:24:54.196Z,99105.63
2018-02-02T06:27:21.684Z,99114.00
2018-02-02T06:29:49.176Z,99121.38
2018-02-02T06:32:16.596Z,99110.72
2018-02-02T06:34:44.365Z,99106.44
2018-02-02T06:37:11.805Z,99117.69
2018-02-02T06:39:39.227Z,99099.71
2018-02-02T06:42:06.668Z,99104.88
2018-02-02T06:44:34.077Z,99106.86
2018-02-02T06:47:01.514Z,99107.01
2018-02-02T06:49:29.374Z,99100.33
2018-02-02T06:51:57.094Z,99110.17
2018-02-02T06:54:24.540Z,99111.80
2018-02-02T06:56:56.222Z,99110.23
2018-02-02T06:59:23.956Z,99113.95
2018-02-02T07:01:51.369Z,99121.46
2018-02-02T07:04:18.825Z,99106.17
2018-02-02T07:06:46.282Z,99110.60
2018-02-02T07:09:13.764Z,99104.95
2018-02-02T07:11:41.198Z,99107.83
2018-02-02T07:14:08.628Z,99118.28
2018-02-02T07:16:36.085Z,99114.38
2018-02-02T07:19:03.530Z,99117.64
2018-02-02T07:21:31.004Z,99109.63
2018-02-02T07:23:58.457Z,99118.35
2018-02-02T07:26:25.882Z,99121.62
2018-02-02T07:28:53.308Z,99135.95
2018-02-02T07:31:20.724Z,99130.84
2018-02-02T07:33:48.177Z,99131.66
2018-02-02T07:36:15.690Z,99131.14
2018-02-02T07:38:43.118Z,99131.05
2018-02-02T07:41:10.564Z,99144.26
2018-02-02T07:43:38.005Z,99144.23
2018-02-02T07:46:05.470Z,99138.05
2018-02-02T07:48:33.281Z,99135.78
2018-02-02T07:51:00.721Z,99132.82
2018-02-02T07:53:28.177Z,99141.02
2018-02-02T07:55:55.600Z,99141.31
2018-02-02T07:58:23.018Z,99147.93
2018-02-02T08:00:56.101Z,99141.30
2018-02-02T08:03:23.516Z,99132.91
2018-02-02T08:05:51.018Z,99135.48
2018-02-02T08:08:18.447Z,99140.50
2018-02-02T08:10:45.884Z,99137.78
2018-02-02T08:13:13.312Z,99143.42
2018-02-02T08:15:40.744Z,99156.19
2018-02-02T08:18:08.173Z,99147.67
2018-02-02T08:20:35.608Z,99149.20
2018-02-02T08:23:03.093Z,99142.96
2018-02-02T08:25:30.548Z,99151.23
2018-02-02T08:27:57.988Z,99166.36
2018-02-02T08:30:25.409Z,99142.53
2018-02-02T08:32:52.853Z,99142.84
2018-02-02T08:35:20.279Z,99147.95
2018-02-02T08:37:47.736Z,99151.39
2018-02-02T08:40:15.165Z,99148.55
2018-02-02T08:42:42.622Z,99141.97
2018-02-02T08:45:10.106Z,99154.43
2018-02-02T08:47:37.540Z,99146.86
2018-02-02T08:50:04.968Z,99147.05
2018-02-02T08:52:34.637Z,99148.87
2018-02-02T08:55:02.076Z,99151.36
2018-02-02T08:57:29.668Z,99155.49
2018-02-02T08:59:57.082Z,99156.08
2018-02-02T09:02:24.508Z,99150.47
2018-02-02T09:04:52.012Z,99160.96
2018-02-02T09:07:19.493Z,99160.80
2018-02-02T09:09:46.980Z,99163.20
2018-02-02T09:12:14.618Z,99150.67
2018-02-02T09:14:42.113Z,99150.42
2018-02-02T09:17:09.545Z,99160.53
2018-02-02T09:19:36.998Z,99139.09
2018-02-02T09:22:03.897Z,99142.40
2018-02-02T09:24:31.356Z,99161.25
2018-02-02T09:26:58.225Z,99160.74
2018-02-02T09:29:25.670Z,99179.16
2018-02-02T09:31:53.166Z,99159.02
2018-02-02T09:34:20.621Z,99161.44
2018-02-02T09:36:48.088Z,99162.20
2018-02-02T09:39:15.585Z,99164.93
2018-02-02T09:41:43.190Z,99166.50
2018-02-02T09:44:10.640Z,99174.02
2018-02-02T09:46:38.142Z,99170.45
2018-02-02T09:49:05.598Z,99166.22
2018-02-02T09:51:33.537Z,99156.92
2018-02-02T09:54:00.997Z,99171.56
2018-02-02T09:56:28.454Z,99183.42
2018-02-02T09:58:55.882Z,99176.44
2018-02-02T10:01:23.353Z,99176.59
2018-02-02T10:03:50.811Z,99177.15
2018-02-02T10:06:18.265Z,99195.89
2018-02-02T10:08:45.698Z,99187.97
2018-02-02T10:11:13.131Z,99179.55
2018-02-02T10:13:40.569Z,99185.73
2018-02-02T10:16:08.003Z,99196.95
2018-02-02T10:18:35.677Z,99205.10
2018-02-02T10:21:04.805Z,99194.14
2018-02-02T10:23:32.245Z,99198.36
2018-02-02T10:25:59.695Z,99204.91
2018-02-02T10:28:27.147Z,99207.66
2018-02-02T10:30:54.712Z,99210.20
2018-02-02T10:33:22.273Z,99217.16
2018-02-02T10:35:49.699Z,99209.80
2018-02-02T10:38:17.152Z,99212.25
2018-02-02T10:40:44.693Z,99207.55
2018-02-02T10:43:14.825Z,99199.59
2018-02-02T10:45:42.240Z,99221.30
2018-02-02T10:48:09.677Z,99204.62
2018-02-02T10:50:37.116Z,99198.99
2018-02-02T10:53:04.751Z,99197.58
2018-02-02T10:55:32.216Z,99191.95
2018-02-02T10:57:59.673Z,99183.70
2018-02-02T11:00:27.105Z,99186.15
2018-02-02T11:03:00.156Z,99174.36
2018-02-02T11:05:27.647Z,99174.80
2018-02-02T11:07:55.225Z,99158.73
2018-02-02T11:10:22.657Z,99169.51
2018-02-02T11:12:50.136Z,99162.16
2018-02-02T11:15:17.586Z,99154.16
2018-02-02T11:17:45.105Z,99149.59
2018-02-02T11:20:12.697Z,99149.95
2018-02-02T11:22:40.281Z,99144.65
2018-02-02T11:25:07.797Z,99146.92
2018-02-02T11:27:35.441Z,99151.54
2018-02-02T11:30:02.928Z,99152.61
2018-02-02T11:32:30.521Z,99138.34
2018-02-02T11:34:57.943Z,99137.73
2018-02-02T11:37:25.425Z,99136.81
2018-02-02T11:39:52.857Z,99131.16
2018-02-02T11:42:20.409Z,99138.14
2018-02-02T11:44:47.852Z,99142.61
2018-02-02T11:47:15.374Z,99133.67
2018-02-02T11:49:42.805Z,99129.22
2018-02-02T11:52:10.398Z,99142.46
2018-02-02T11:54:37.965Z,99132.66
2018-02-02T11:57:05.405Z,99129.39
2018-02-02T11:59:32.871Z,99124.16
2018-02-02T12:02:00.409Z,99124.75
2018-02-02T12:04:27.865Z,99122.66
2018-02-02T12:06:55.407Z,99127.80
2018-02-02T12:09:22.847Z,99120.38
2018-02-02T12:11:50.736Z,99128.54
2018-02-02T12:14:18.204Z,99118.81
2018-02-02T12:16:45.717Z,99129.47
2018-02-02T12:19:13.288Z,99131.16
2018-02-02T12:21:40.789Z,99123.27
2018-02-02T12:24:23.904Z,99122.02
2018-02-02T12:27:07.441Z,99112.55
2018-02-02T12:32:48.605Z,99122.88
2018-02-02T12:35:18.004Z,99119.31
2018-02-02T12:37:45.899Z,99126.84
2018-02-02T12:40:13.337Z,99128.08
2018-02-02T12:42:40.792Z,99131.02
2018-02-02T12:45:08.265Z,99123.47
2018-02-02T12:47:35.939Z,99133.41
2018-02-02T12:50:07.244Z,99120.41
2018-02-02T12:52:34.777Z,99123.16
2018-02-02T12:55:02.227Z,99114.87
2018-02-02T12:57:29.738Z,99117.94
2018-02-02T12:59:57.240Z,99112.17
2018-02-02T13:02:25.031Z,99120.84
2018-02-02T13:04:52.518Z,99137.30
2018-02-02T13:07:20.065Z,99124.28
2018-02-02T13:09:47.669Z,99127.50
2018-02-02T13:12:16.102Z,99122.25
2018-02-02T13:14:43.678Z,99123.89
2018-02-02T13:17:11.153Z,99114.42
2018-02-02T13:19:38.628Z,99113.67
2018-02-02T13:22:07.115Z,109178.30
2018-02-02T13:24:34.763Z,109178.30
2018-02-02T13:27:02.262Z,109178.30
2018-02-02T13:29:30.116Z,109178.30
2018-02-02T13:31:57.555Z,109178.30
2018-02-02T13:34:25.039Z,109178.30
2018-02-02T13:36:52.499Z,109178.30
2018-02-02T13:39:20.304Z,109178.30
2018-02-02T13:41:47.782Z,109178.30
2018-02-02T13:44:15.326Z,109178.30
2018-02-02T13:46:43.750Z,109178.30
2018-02-02T13:49:11.221Z,109178.30
2018-02-02T13:51:38.782Z,109178.30
2018-02-02T13:54:06.330Z,109178.30
2018-02-02T13:56:34.956Z,109178.30
2018-02-02T13:59:02.504Z,109178.30
2018-02-02T14:01:30.128Z,109178.30
2018-02-02T14:03:57.712Z,109178.30
2018-02-02T14:06:27.198Z,109178.30
2018-02-02T14:08:55.385Z,109178.30
2018-02-02T14:11:22.911Z,99135.19
2018-02-02T14:13:50.398Z,109178.30
2018-02-02T14:16:17.844Z,109178.30
2018-02-02T14:18:45.372Z,109178.30
2018-02-02T14:21:13.029Z,109178.30
2018-02-02T14:23:40.888Z,109178.30
2018-02-02T14:26:08.380Z,109178.30
2018-02-02T14:28:35.848Z,109178.30
2018-02-02T14:31:04.790Z,109178.30
2018-02-02T14:33:52.344Z,109178.30
2018-02-02T14:36:20.078Z,109178.30
2018-02-02T14:38:47.592Z,109178.30
2018-02-02T14:41:15.214Z,109178.30
2018-02-02T14:43:42.692Z,109178.30
2018-02-02T14:46:10.432Z,109178.30
2018-02-02T14:48:37.932Z,109178.30
2018-02-02T14:51:07.136Z,109178.30
2018-02-02T14:53:34.995Z,109178.30
2018-02-02T14:56:02.493Z,109178.30
2018-02-02T14:58:30.013Z,109178.30
2018-02-02T15:00:57.466Z,109178.30
2018-02-02T15:03:24.954Z,109178.30
2018-02-02T15:05:52.423Z,109178.30
2018-02-02T15:08:19.868Z,109178.30
2018-02-02T15:10:47.337Z,109178.30
2018-02-02T15:13:14.780Z,109178.30
2018-02-02T15:15:42.252Z,109178.30
2018-02-02T15:18:09.789Z,109178.30
2018-02-02T15:20:37.263Z,109178.30
2018-02-02T15:23:07.658Z,109178.30
2018-02-02T15:25:35.244Z,109178.30
2018-02-02T15:28:03.123Z,109178.30
2018-02-02T15:30:30.634Z,109178.30
2018-02-02T15:32:58.255Z,109178.30
2018-02-02T15:35:25.720Z,109178.30
2018-02-02T15:37:53.194Z,109178.30
2018-02-02T15:40:20.663Z,109178.30
2018-02-02T15:42:53.348Z,109178.30
2018-02-02T15:45:25.019Z,109178.30
2018-02-02T15:47:52.789Z,109178.30
2018-02-02T15:50:20.677Z,109178.30
2018-02-02T15:52:48.253Z,109178.30
2018-02-02T15:55:15.695Z,109178.30
2018-02-02T15:57:43.165Z,109178.30
2018-02-02T16:00:10.624Z,109178.30
2018-02-02T16:02:38.112Z,109178.30
2018-02-02T16:05:05.576Z,109178.30
2018-02-02T16:07:33.048Z,109178.30
2018-02-02T16:10:00.529Z,109178.30
2018-02-02T16:12:28.082Z,109178.30
2018-02-02T16:14:55.539Z,109178.30
2018-02-02T16:17:23.003Z,109178.30
2018-02-02T16:19:50.485Z,109178.30
2018-02-02T16:22:18.008Z,109178.30
2018-02-02T16:24:45.469Z,109178.30
2018-02-02T16:27:12.960Z,109178.30
2018-02-02T16:29:40.721Z,109178.30
2018-02-02T16:32:11.520Z,109178.30
2018-02-02T16:34:41.086Z,109178.30
2018-02-02T16:37:08.665Z,109178.30
2018-02-02T16:39:36.709Z,109178.30
2018-02-02T16:42:04.320Z,109178.30
2018-02-02T16:44:31.780Z,109178.30
2018-02-02T16:46:59.251Z,109178.30
2018-02-02T16:49:26.971Z,109178.30
2018-02-02T16:51:54.586Z,109178.30
2018-02-02T16:54:22.080Z,109178.30
2018-02-02T16:56:49.548Z,109178.30
2018-02-02T16:59:17.368Z,109178.30
2018-02-02T17:01:44.833Z,109178.30
2018-02-02T17:04:12.305Z,109178.30
2018-02-02T17:06:40.106Z,109178.30
2018-02-02T17:09:09.572Z,109178.30
2018-02-02T17:11:40.692Z,109178.30
2018-02-02T17:14:08.179Z,109178.30
2018-02-02T17:16:41.158Z,109178.30
2018-02-02T17:19:08.652Z,109178.30
2018-02-02T17:21:40.053Z,109178.30
2018-02-02T17:24:09.484Z,109178.30
2018-02-02T17:26:38.990Z,109178.30
2018-02-02T17:29:06.585Z,109178.30
2018-02-02T17:31:34.091Z,109178.30
2018-02-02T17:34:01.566Z,109178.30
2018-02-02T17:36:29.017Z,109178.30
2018-02-02T17:39:01.965Z,109178.30
2018-02-02T17:41:29.418Z,109178.30
2018-02-02T17:43:59.028Z,109178.30
2018-02-02T17:46:26.495Z,109178.30
2018-02-02T17:48:59.703Z,109178.30
2018-02-02T17:51:29.464Z,109178.30
2018-02-02T17:53:57.012Z,109178.30
2018-02-02T17:56:24.593Z,109178.30
2018-02-02T17:58:52.109Z,109178.30
2018-02-02T18:01:25.561Z,109178.30
2018-02-02T18:03:53.052Z,109178.30
2018-02-02T18:06:20.594Z,109178.30
2018-02-02T18:08:48.063Z,109178.30
2018-02-02T18:11:15.547Z,109178.30
2018-02-02T18:13:43.769Z,109178.30
2018-02-02T18:16:11.269Z,109178.30
2018-02-02T18:18:38.732Z,109178.30
2018-02-02T18:21:07.928Z,109178.30
2018-02-02T18:23:37.797Z,109178.30
2018-02-02T18:26:05.945Z,109178.30
2018-02-02T18:28:33.480Z,109178.30
2018-02-02T18:31:02.142Z,109178.30
2018-02-02T18:33:29.859Z,109178.30
2018-02-02T18:35:57.317Z,109178.30
2018-02-02T18:38:24.785Z,109178.30
2018-02-02T18:40:52.555Z,109178.30
2018-02-02T18:43:20.189Z,109178.30
2018-02-02T18:45:47.738Z,109178.30
2018-02-02T18:48:15.256Z,109178.30
2018-02-02T18:50:42.749Z,109178.30
2018-02-02T18:53:10.220Z,109178.30
2018-02-02T18:55:37.676Z,109178.30
2018-02-02T18:58:06.085Z,109178.30
2018-02-02T19:00:33.535Z,109178.30
2018-02-02T19:03:02.686Z,109178.30
2018-02-02T19:05:30.376Z,109178.30
2018-02-02T19:07:58.160Z,109178.30
2018-02-02T19:10:25.698Z,109178.30
2018-02-02T19:12:53.247Z,109178.30
2018-02-02T19:15:20.694Z,109178.30
2018-02-02T19:17:48.156Z,109178.30
2018-02-02T19:20:16.169Z,109178.30
2018-02-02T19:22:43.660Z,109178.30
2018-02-02T19:25:11.194Z,109178.30
2018-02-02T19:27:38.640Z,109178.30
2018-02-02T19:30:06.197Z,109178.30
2018-02-02T19:32:33.759Z,109178.30
2018-02-02T19:35:01.216Z,109178.30
2018-02-02T19:37:28.675Z,109178.30
2018-02-02T19:39:57.169Z,109178.30
2018-02-02T19:42:24.645Z,109178.30
2018-02-02T19:44:52.842Z,109178.30
2018-02-02T19:47:20.320Z,109178.30
2018-02-02T19:49:47.847Z,109178.30
2018-02-02T19:52:15.978Z,109178.30
2018-02-02T19:54:43.488Z,109178.30
2018-02-02T19:57:15.484Z,109178.30
2018-02-02T19:59:42.967Z,109178.30
2018-02-02T20:02:10.416Z,109178.30
2018-02-02T20:04:37.882Z,109178.30
2018-02-02T20:07:05.389Z,109178.30
2018-02-02T20:09:32.876Z,109178.30
2018-02-02T20:12:00.340Z,109178.30
2018-02-02T20:14:27.801Z,109178.30
2018-02-02T20:16:55.297Z,109178.30
2018-02-02T20:19:22.801Z,109178.30
2018-02-02T20:21:51.264Z,109178.30
2018-02-02T20:24:19.004Z,109178.30
2018-02-02T20:26:46.489Z,109178.30
2018-02-02T20:29:14.003Z,109178.30
2018-02-02T20:31:41.443Z,109178.30
2018-02-02T20:34:08.901Z,109178.30
2018-02-02T20:36:36.438Z,109178.30
2018-02-02T20:39:03.938Z,109178.30
2018-02-02T20:41:31.396Z,109178.30
2018-02-02T20:43:58.998Z,109178.30
2018-02-02T20:46:26.452Z,109178.30
2018-02-02T20:48:54.846Z,109178.30
2018-02-02T20:51:22.301Z,109178.30
2018-02-02T20:53:49.808Z,109178.30
2018-02-02T20:56:17.285Z,109178.30
2018-02-02T20:58:44.746Z,109178.30
2018-02-02T21:01:12.190Z,109178.30
2018-02-02T21:03:39.644Z,109178.30
2018-02-02T21:06:07.090Z,109178.30
2018-02-02T21:08:34.595Z,109178.30
2018-02-02T21:11:02.072Z,109178.30
2018-02-02T21:13:29.548Z,109178.30
2018-02-02T21:15:57.038Z,109178.30
2018-02-02T21:18:24.512Z,109178.30
2018-02-02T21:20:51.948Z,109178.30
2018-02-02T21:23:19.426Z,109178.30
2018-02-02T21:25:46.881Z,109178.30
2018-02-02T21:28:14.411Z,109178.30
2018-02-02T21:30:41.859Z,109178.30
2018-02-02T21:33:09.353Z,109178.30
2018-02-02T21:35:37.088Z,109178.30
2018-02-02T21:38:04.648Z,109178.30
2018-02-02T21:40:32.138Z,109178.30
2018-02-02T21:42:59.663Z,109178.30
2018-02-02T21:45:27.160Z,109178.30
2018-02-02T21:47:54.625Z,109178.30
2018-02-02T21:50:22.080Z,109178.30
2018-02-02T21:52:49.538Z,109178.30
2018-02-02T21:55:17.009Z,109178.30
2018-02-02T21:57:44.460Z,109178.30
2018-02-02T22:00:11.993Z,109178.30
2018-02-02T22:02:39.457Z,109178.30
2018-02-02T22:05:07.428Z,109178.30
2018-02-02T22:07:34.899Z,109178.30
2018-02-02T22:10:02.394Z,109178.30
2018-02-02T22:12:29.849Z,109178.30
2018-02-02T22:14:57.295Z,109178.30
2018-02-02T22:17:24.785Z,109178.30
2018-02-02T22:19:52.240Z,109178.30
2018-02-02T22:22:19.814Z,109178.30
2018-02-02T22:24:47.273Z,109178.30
2018-02-02T22:27:14.794Z,109178.30
2018-02-02T22:29:42.268Z,109178.30
2018-02-02T22:32:09.779Z,109178.30
2018-02-02T22:34:38.506Z,109178.30
2018-02-02T22:37:07.019Z,109178.30
2018-02-02T22:39:34.556Z,109178.30
2018-02-02T22:42:02.026Z,109178.30
2018-02-02T22:44:29.724Z,109178.30
2018-02-02T22:46:57.221Z,109178.30
2018-02-02T22:49:24.665Z,109178.30
2018-02-02T22:51:52.173Z,109178.30
2018-02-02T22:54:19.629Z,109178.30
2018-02-02T22:56:47.114Z,109178.30
2018-02-02T22:59:14.665Z,109178.30
2018-02-02T23:01:42.125Z,109178.30
2018-02-02T23:04:09.583Z,109178.30
2018-02-02T23:06:37.119Z,109178.30
2018-02-02T23:09:04.592Z,109178.30
2018-02-02T23:11:32.341Z,109178.30
2018-02-02T23:14:00.921Z,109178.30
2018-02-02T23:16:28.528Z,109178.30
2018-02-02T23:18:55.996Z,109178.30
2018-02-02T23:21:23.447Z,109178.30
2018-02-02T23:23:51.381Z,109178.30
2018-02-02T23:26:18.820Z,109178.30
2018-02-02T23:28:46.310Z,109178.30
2018-02-02T23:31:13.755Z,109178.30
2018-02-02T23:33:41.221Z,109178.30
2018-02-02T23:36:08.757Z,109178.30
2018-02-02T23:38:37.141Z,109178.30
2018-02-02T23:41:04.593Z,109178.30
2018-02-02T23:43:32.049Z,109178.30
2018-02-02T23:45:59.573Z,109178.30
2018-02-02T23:48:27.089Z,109178.30
2018-02-02T23:50:54.558Z,109178.30
2018-02-02T23:53:22.009Z,109178.30
2018-02-02T23:55:49.472Z,109178.30
2018-02-02T23:58:16.935Z,109178.30
